LFMV 210400Z AUTO 35023G41KT CAVOK 04/M02 Q1021 NOSIG

ElémentsDécodage
LFMV Station météo située sur l'aérodrome de AVIGNON Caumont
210400Z émis le 21 du mois à 04h00 UTC
AUTO Bulletin édité par un automate
35023G41KT vent du 350°, moyenne: 23 noeuds, avec rafales à 41 noeuds
CAVOK Ceiling And Visibility OK
- Visibilité de 10 Km ou plus
- Pas de nuage au-dessous de 1500m ou au-dessous de l'altitude minimale du secteur la plus élevée (si>1500m) et absence de CB
- pas de temps présent significatif
04/M02 température 04°C, point de rosée -02°C
 soit une humidité relative de 65%
Q1021 la pression au niveau de la mer (QNH) est de 1021 hPa
NOSIG Pas de changement significatif prévu au cours des deux heures suivant l'heure de l'observation